createdAt,value
2022-07-29T00:01:54.837Z,53.20
2022-07-29T00:04:22.107Z,53.20
2022-07-29T00:06:49.123Z,53.10
2022-07-29T00:09:15.876Z,53.00
2022-07-29T00:11:42.715Z,53.10
2022-07-29T00:14:09.522Z,53.00
2022-07-29T00:16:36.537Z,53.10
2022-07-29T00:19:03.459Z,53.20
2022-07-29T00:21:30.526Z,53.20
2022-07-29T00:23:57.333Z,53.40
2022-07-29T00:26:24.116Z,53.40
2022-07-29T00:28:50.894Z,53.40
2022-07-29T00:31:17.681Z,53.20
2022-07-29T00:33:44.523Z,53.20
2022-07-29T00:36:11.266Z,53.20
2022-07-29T00:38:37.990Z,53.50
2022-07-29T00:41:04.707Z,53.50
2022-07-29T00:43:31.452Z,53.50
2022-07-29T00:45:58.156Z,53.50
2022-07-29T00:48:24.897Z,53.30
2022-07-29T00:50:51.831Z,53.30
2022-07-29T00:53:18.656Z,53.40
2022-07-29T00:55:45.445Z,54.00
2022-07-29T00:58:13.183Z,53.30
2022-07-29T01:00:41.824Z,53.40
2022-07-29T01:03:08.846Z,53.30
2022-07-29T01:05:48.148Z,53.20
2022-07-29T01:08:18.043Z,53.20
2022-07-29T01:10:44.784Z,53.20
2022-07-29T01:13:11.511Z,53.10
2022-07-29T01:15:40.935Z,53.10
2022-07-29T01:18:22.172Z,53.10
2022-07-29T01:20:54.949Z,53.00
2022-07-29T01:23:24.541Z,52.80
2022-07-29T01:26:09.820Z,52.80
2022-07-29T01:28:53.436Z,52.80
2022-07-29T01:31:36.609Z,52.80
2022-07-29T01:34:07.314Z,52.60
2022-07-29T01:36:48.016Z,53.30
2022-07-29T01:39:27.216Z,52.70
2022-07-29T01:41:57.022Z,52.50
2022-07-29T01:44:24.795Z,52.50
2022-07-29T01:46:53.773Z,52.60
2022-07-29T01:49:27.464Z,52.70
2022-07-29T01:51:55.852Z,52.40
2022-07-29T01:54:25.688Z,52.60
2022-07-29T01:56:52.556Z,52.30
2022-07-29T01:59:19.948Z,52.40
2022-07-29T02:01:48.208Z,52.50
2022-07-29T02:04:29.095Z,52.50
2022-07-29T02:06:58.277Z,52.50
2022-07-29T02:09:24.997Z,52.40
2022-07-29T02:11:52.499Z,52.50
2022-07-29T02:14:19.910Z,52.50
2022-07-29T02:16:47.120Z,52.40
2022-07-29T02:19:13.836Z,52.40
2022-07-29T02:21:40.578Z,52.40
2022-07-29T02:24:07.315Z,52.30
2022-07-29T02:26:34.079Z,52.30
2022-07-29T02:29:00.818Z,52.40
2022-07-29T02:31:29.182Z,52.30
2022-07-29T02:33:55.941Z,52.30
2022-07-29T02:36:23.151Z,52.40
2022-07-29T02:38:52.809Z,52.30
2022-07-29T02:41:21.088Z,52.10
2022-07-29T02:43:51.564Z,52.20
2022-07-29T02:46:29.171Z,52.20
2022-07-29T02:48:57.440Z,52.30
2022-07-29T02:51:43.419Z,52.40
2022-07-29T02:54:12.239Z,52.30
2022-07-29T02:56:39.098Z,52.30
2022-07-29T02:59:09.964Z,52.20
2022-07-29T03:01:36.812Z,52.30
2022-07-29T03:04:04.943Z,52.20
2022-07-29T03:06:38.253Z,52.20
2022-07-29T03:09:12.050Z,52.10
2022-07-29T03:11:41.498Z,52.20
2022-07-29T03:14:18.010Z,52.00
2022-07-29T03:16:45.149Z,52.10
2022-07-29T03:19:11.969Z,52.00
2022-07-29T03:21:38.736Z,52.00
2022-07-29T03:24:10.103Z,51.90
2022-07-29T03:26:37.383Z,52.10
2022-07-29T03:29:04.108Z,52.00
2022-07-29T03:31:30.922Z,52.00
2022-07-29T03:33:58.548Z,52.10
2022-07-29T03:36:25.831Z,52.00
2022-07-29T03:38:52.588Z,52.00
2022-07-29T03:41:22.634Z,52.00
2022-07-29T03:43:50.018Z,52.00
2022-07-29T03:46:16.936Z,52.10
2022-07-29T03:48:43.814Z,52.10
2022-07-29T03:51:10.627Z,52.00
2022-07-29T03:53:37.662Z,52.00
2022-07-29T03:56:04.530Z,52.10
2022-07-29T03:58:31.608Z,51.60
2022-07-29T04:00:58.916Z,52.00
2022-07-29T04:03:25.767Z,52.10
2022-07-29T04:05:59.352Z,52.20
2022-07-29T04:08:26.080Z,52.00
2022-07-29T04:10:53.505Z,52.20
2022-07-29T04:13:20.613Z,52.10
2022-07-29T04:15:47.360Z,52.20
2022-07-29T04:18:14.128Z,52.10
2022-07-29T04:20:40.880Z,52.10
2022-07-29T04:23:07.669Z,52.20
2022-07-29T04:25:34.423Z,52.20
2022-07-29T04:28:01.205Z,52.10
2022-07-29T04:30:28.132Z,52.00
2022-07-29T04:32:54.926Z,51.90
2022-07-29T04:35:21.719Z,51.90
2022-07-29T04:37:48.479Z,51.70
2022-07-29T04:40:15.219Z,51.70
2022-07-29T04:42:46.518Z,51.60
2022-07-29T04:45:14.117Z,51.50
2022-07-29T04:47:40.973Z,51.50
2022-07-29T04:50:08.518Z,51.50
2022-07-29T04:52:36.219Z,51.40
2022-07-29T04:55:03.358Z,51.40
2022-07-29T04:57:30.117Z,51.40
2022-07-29T04:59:56.882Z,51.40
2022-07-29T05:02:23.709Z,51.30
2022-07-29T05:04:50.501Z,51.30
2022-07-29T05:07:17.235Z,51.20
2022-07-29T05:09:43.977Z,51.20
2022-07-29T05:12:10.872Z,51.10
2022-07-29T05:14:37.611Z,51.00
2022-07-29T05:17:04.444Z,50.90
2022-07-29T05:19:31.172Z,51.00
2022-07-29T05:21:57.945Z,50.90
2022-07-29T05:24:24.676Z,50.70
2022-07-29T05:26:51.796Z,50.70
2022-07-29T05:29:44.703Z,50.70
2022-07-29T05:32:05.629Z,50.60
2022-07-29T05:34:32.561Z,50.70
2022-07-29T05:36:59.640Z,50.80
2022-07-29T05:39:47.133Z,50.80
2022-07-29T05:42:13.124Z,50.90
2022-07-29T05:44:40.236Z,50.70
2022-07-29T05:47:07.501Z,50.70
2022-07-29T05:49:34.385Z,50.60
2022-07-29T05:52:01.205Z,50.70
2022-07-29T05:54:27.956Z,50.80
2022-07-29T05:56:54.676Z,50.70
2022-07-29T05:59:21.414Z,50.80
2022-07-29T06:01:48.328Z,50.70
2022-07-29T06:04:15.313Z,50.70
2022-07-29T06:06:42.216Z,50.80
2022-07-29T06:09:12.167Z,50.70
2022-07-29T06:11:39.699Z,50.70
2022-07-29T06:14:06.457Z,50.70
2022-07-29T06:16:33.291Z,50.70
2022-07-29T06:19:00.127Z,50.70
2022-07-29T06:21:26.869Z,50.80
2022-07-29T06:23:53.595Z,50.70
2022-07-29T06:26:26.345Z,50.80
2022-07-29T06:28:58.301Z,50.80
2022-07-29T06:31:25.113Z,50.80
2022-07-29T06:33:51.962Z,50.90
2022-07-29T06:36:21.708Z,50.70
2022-07-29T06:38:51.433Z,50.70
2022-07-29T06:41:19.178Z,50.60
2022-07-29T06:43:52.658Z,50.80
2022-07-29T06:46:21.944Z,50.70
2022-07-29T06:48:49.149Z,51.30
2022-07-29T06:51:16.277Z,51.10
2022-07-29T06:54:00.305Z,51.00
2022-07-29T06:56:39.543Z,50.60
2022-07-29T06:59:06.533Z,50.40
2022-07-29T07:01:33.527Z,50.20
2022-07-29T07:04:00.278Z,50.20
2022-07-29T07:06:27.068Z,50.30
2022-07-29T07:08:54.359Z,50.30
2022-07-29T07:11:21.115Z,50.00
2022-07-29T07:13:47.894Z,49.90
2022-07-29T07:16:14.825Z,49.90
2022-07-29T07:18:41.674Z,50.20
2022-07-29T07:21:08.412Z,50.20
2022-07-29T07:23:35.171Z,50.60
2022-07-29T07:26:04.330Z,50.40
2022-07-29T07:28:31.064Z,50.20
2022-07-29T07:30:58.759Z,50.10
2022-07-29T07:33:25.823Z,50.40
2022-07-29T07:35:52.556Z,50.20
2022-07-29T07:38:19.332Z,50.10
2022-07-29T07:40:47.430Z,50.00
2022-07-29T07:43:14.179Z,50.30
2022-07-29T07:45:41.263Z,50.30
2022-07-29T07:48:08.047Z,50.40
2022-07-29T07:50:34.812Z,50.60
2022-07-29T07:53:03.144Z,50.50
2022-07-29T07:55:42.458Z,50.60
2022-07-29T07:58:16.741Z,50.70
2022-07-29T08:00:43.553Z,50.70
2022-07-29T08:03:17.131Z,50.80
2022-07-29T08:05:44.270Z,50.80
2022-07-29T08:08:11.008Z,50.80
2022-07-29T08:10:53.006Z,50.80
2022-07-29T08:13:23.005Z,51.00
2022-07-29T08:15:58.499Z,51.10
2022-07-29T08:18:25.956Z,51.30
2022-07-29T08:20:52.721Z,51.30
2022-07-29T08:23:22.509Z,51.30
2022-07-29T08:25:50.273Z,51.30
2022-07-29T08:28:17.892Z,51.40
2022-07-29T08:30:44.671Z,51.40
2022-07-29T08:33:11.404Z,51.60
2022-07-29T08:35:38.147Z,51.50
2022-07-29T08:38:04.911Z,51.70
2022-07-29T08:40:32.567Z,51.80
2022-07-29T08:43:00.746Z,51.90
2022-07-29T08:45:27.631Z,51.70
2022-07-29T08:47:54.597Z,51.70
2022-07-29T08:50:21.356Z,52.00
2022-07-29T08:52:48.103Z,51.80
2022-07-29T08:55:15.335Z,51.80
2022-07-29T08:57:51.905Z,51.70
2022-07-29T09:00:21.245Z,51.70
2022-07-29T09:02:49.160Z,51.70
2022-07-29T09:05:16.071Z,51.60
2022-07-29T09:07:44.834Z,51.70
2022-07-29T09:10:11.671Z,51.60
2022-07-29T09:12:38.952Z,51.60
2022-07-29T09:15:05.884Z,51.50
2022-07-29T09:17:45.715Z,51.50
2022-07-29T09:20:13.382Z,51.50
2022-07-29T09:22:42.182Z,51.50
2022-07-29T09:25:09.162Z,51.60
2022-07-29T09:27:35.924Z,51.60
2022-07-29T09:30:02.759Z,52.50
2022-07-29T09:32:30.680Z,53.20
2022-07-29T09:35:16.568Z,53.00
2022-07-29T09:37:44.084Z,52.90
2022-07-29T09:40:17.449Z,53.00
2022-07-29T09:42:44.396Z,52.80
2022-07-29T09:45:11.309Z,53.00
2022-07-29T09:47:41.790Z,53.10
2022-07-29T09:50:08.755Z,52.60
2022-07-29T09:52:42.893Z,52.60
2022-07-29T09:55:10.112Z,52.70
2022-07-29T09:57:45.152Z,52.80
2022-07-29T10:00:13.404Z,52.90
2022-07-29T10:02:40.674Z,53.10
2022-07-29T10:05:08.455Z,53.00
2022-07-29T10:07:57.345Z,53.20
2022-07-29T10:10:28.102Z,52.90
2022-07-29T10:13:01.839Z,53.20
2022-07-29T10:15:33.848Z,53.00
2022-07-29T10:18:00.692Z,53.30
2022-07-29T10:20:27.823Z,53.20
2022-07-29T10:22:54.687Z,53.50
2022-07-29T10:25:21.523Z,53.20
2022-07-29T10:27:48.518Z,53.10
2022-07-29T10:30:16.180Z,53.20
2022-07-29T10:32:55.229Z,53.10
2022-07-29T10:35:43.149Z,53.20
2022-07-29T10:38:17.427Z,53.70
2022-07-29T10:41:11.080Z,53.20
2022-07-29T10:43:39.105Z,53.30
2022-07-29T10:46:09.302Z,53.30
2022-07-29T10:48:50.564Z,53.20
2022-07-29T10:51:18.073Z,53.20
2022-07-29T10:53:48.917Z,53.20
2022-07-29T10:56:28.602Z,53.10
2022-07-29T10:59:13.989Z,53.30
2022-07-29T11:01:40.762Z,53.20
2022-07-29T11:04:37.347Z,53.20
2022-07-29T11:07:07.768Z,53.00
2022-07-29T11:09:37.507Z,52.80
2022-07-29T11:12:05.443Z,52.70
2022-07-29T11:14:50.932Z,52.60
2022-07-29T11:17:17.701Z,52.30
2022-07-29T11:19:52.028Z,52.30
2022-07-29T11:22:34.690Z,52.30
2022-07-29T11:25:42.867Z,52.20
2022-07-29T11:28:17.505Z,52.20
2022-07-29T11:30:50.774Z,51.90
2022-07-29T11:33:54.138Z,51.90
2022-07-29T11:36:17.173Z,51.60
2022-07-29T11:38:44.340Z,51.70
2022-07-29T11:41:21.025Z,51.70
2022-07-29T11:43:52.376Z,51.60
2022-07-29T11:46:38.544Z,51.70
2022-07-29T11:49:09.212Z,51.50
2022-07-29T11:51:48.490Z,51.60
2022-07-29T11:54:16.096Z,51.40
2022-07-29T11:56:44.660Z,51.40
2022-07-29T11:59:11.462Z,51.40
2022-07-29T12:01:56.010Z,51.30
2022-07-29T12:04:33.569Z,52.10
2022-07-29T12:07:00.380Z,51.40
2022-07-29T12:09:27.381Z,51.40
2022-07-29T12:12:07.277Z,51.30
2022-07-29T12:14:35.288Z,51.40
2022-07-29T12:17:02.049Z,51.30
2022-07-29T12:19:28.803Z,51.50
2022-07-29T12:22:02.146Z,51.40
2022-07-29T12:24:29.908Z,51.60
2022-07-29T12:27:00.221Z,51.60
2022-07-29T12:29:35.656Z,51.80
2022-07-29T12:32:03.178Z,50.90
2022-07-29T12:34:30.472Z,51.40
2022-07-29T12:36:57.246Z,51.60
2022-07-29T12:39:27.380Z,51.10
2022-07-29T12:41:54.228Z,51.20
2022-07-29T12:44:50.129Z,51.10
2022-07-29T12:47:17.008Z,50.80
2022-07-29T12:49:43.749Z,50.90
2022-07-29T12:52:26.499Z,50.80
2022-07-29T12:54:53.347Z,50.70
2022-07-29T12:57:20.513Z,50.80
2022-07-29T12:59:59.451Z,50.70
2022-07-29T13:02:26.262Z,50.70
2022-07-29T13:04:56.552Z,51.20
2022-07-29T13:07:55.310Z,51.30
2022-07-29T13:10:18.473Z,51.10
2022-07-29T13:13:06.538Z,51.10
2022-07-29T13:15:33.649Z,50.50
2022-07-29T13:18:00.676Z,49.90
2022-07-29T13:20:31.220Z,49.50
2022-07-29T13:22:58.593Z,49.00
2022-07-29T13:25:29.496Z,48.80
2022-07-29T13:27:56.619Z,48.80
2022-07-29T13:30:23.599Z,49.10
2022-07-29T13:32:50.508Z,49.20
2022-07-29T13:35:17.616Z,48.80
2022-07-29T13:37:44.399Z,48.50
2022-07-29T13:40:11.441Z,48.60
2022-07-29T13:42:38.248Z,48.50
2022-07-29T13:45:05.526Z,48.00
2022-07-29T13:47:33.364Z,47.60
2022-07-29T13:50:03.909Z,47.40
2022-07-29T13:52:32.871Z,47.00
2022-07-29T13:54:59.663Z,46.60
2022-07-29T13:57:26.450Z,46.20
2022-07-29T13:59:54.396Z,45.70
2022-07-29T14:02:21.412Z,45.20
2022-07-29T14:04:52.453Z,45.00
2022-07-29T14:07:19.285Z,44.40
2022-07-29T14:09:46.094Z,44.20
2022-07-29T14:12:12.960Z,44.00
2022-07-29T14:14:39.747Z,43.60
2022-07-29T14:17:07.669Z,43.20
2022-07-29T14:19:36.721Z,43.10
2022-07-29T14:22:07.127Z,42.90
2022-07-29T14:24:33.989Z,42.50
2022-07-29T14:27:04.226Z,42.30
2022-07-29T14:29:37.651Z,42.20
2022-07-29T14:32:08.492Z,41.90
2022-07-29T14:34:36.112Z,41.70
2022-07-29T14:37:03.902Z,41.80
2022-07-29T14:39:32.026Z,41.10
2022-07-29T14:41:59.186Z,41.00
2022-07-29T14:44:32.202Z,40.60
2022-07-29T14:47:00.497Z,40.60
2022-07-29T14:49:27.698Z,40.30
2022-07-29T14:51:54.439Z,40.30
2022-07-29T14:54:21.257Z,39.90
2022-07-29T14:56:50.308Z,40.00
2022-07-29T14:59:17.092Z,39.80
2022-07-29T15:01:44.271Z,39.50
2022-07-29T15:04:11.021Z,39.60
2022-07-29T15:06:38.934Z,39.30
2022-07-29T15:09:05.735Z,39.40
2022-07-29T15:11:32.581Z,39.10
2022-07-29T15:14:05.319Z,39.00
2022-07-29T15:16:32.168Z,38.90
2022-07-29T15:19:01.333Z,39.10
2022-07-29T15:21:28.735Z,42.10
2022-07-29T15:23:55.489Z,43.90
2022-07-29T15:26:22.309Z,43.70
2022-07-29T15:28:49.169Z,43.50
2022-07-29T15:31:15.979Z,43.40
2022-07-29T15:33:42.801Z,43.60
2022-07-29T15:36:09.717Z,43.70
2022-07-29T15:38:40.478Z,43.70
2022-07-29T15:41:08.743Z,43.60
2022-07-29T15:43:38.384Z,43.70
2022-07-29T15:46:23.965Z,43.30
2022-07-29T15:48:50.820Z,43.00
2022-07-29T15:51:17.637Z,43.30
2022-07-29T15:53:44.474Z,43.10
2022-07-29T15:56:20.501Z,42.90
2022-07-29T15:58:47.315Z,42.70
2022-07-29T16:01:14.655Z,42.30
2022-07-29T16:03:45.908Z,42.20
2022-07-29T16:06:13.136Z,42.10
2022-07-29T16:08:39.880Z,42.00
2022-07-29T16:11:06.608Z,42.10
2022-07-29T16:13:33.348Z,43.50
2022-07-29T16:16:06.640Z,43.50
2022-07-29T16:18:33.379Z,43.40
2022-07-29T16:21:00.169Z,43.60
2022-07-29T16:23:26.922Z,43.40
2022-07-29T16:26:01.455Z,43.50
2022-07-29T16:28:31.596Z,43.70
2022-07-29T16:30:58.381Z,43.60
2022-07-29T16:33:25.193Z,43.90
2022-07-29T16:35:52.196Z,43.90
2022-07-29T16:38:18.986Z,44.20
2022-07-29T16:40:45.751Z,44.10
2022-07-29T16:43:12.491Z,44.20
2022-07-29T16:45:45.571Z,44.00
2022-07-29T16:48:13.907Z,44.40
2022-07-29T16:50:41.047Z,44.10
2022-07-29T16:53:10.337Z,43.70
2022-07-29T16:55:37.136Z,43.40
2022-07-29T16:58:03.880Z,43.30
2022-07-29T17:00:30.732Z,43.10
2022-07-29T17:02:57.601Z,43.00
2022-07-29T17:05:24.436Z,42.80
2022-07-29T17:07:51.230Z,42.90
2022-07-29T17:10:18.046Z,42.50
2022-07-29T17:12:44.808Z,42.50
2022-07-29T17:15:11.714Z,42.30
2022-07-29T17:17:55.450Z,42.20
2022-07-29T17:20:23.745Z,42.10
2022-07-29T17:22:50.497Z,41.90
2022-07-29T17:25:20.956Z,41.90
2022-07-29T17:27:49.684Z,41.90
2022-07-29T17:30:16.551Z,41.90
2022-07-29T17:32:43.328Z,41.60
2022-07-29T17:35:29.033Z,41.70
2022-07-29T17:37:55.929Z,43.00
2022-07-29T17:40:22.788Z,43.40
2022-07-29T17:42:49.672Z,43.90
2022-07-29T17:45:16.496Z,44.50
2022-07-29T17:47:44.557Z,45.20
2022-07-29T17:50:11.299Z,45.50
2022-07-29T17:52:39.206Z,45.70
2022-07-29T17:55:06.872Z,45.70
2022-07-29T17:57:34.127Z,45.90
2022-07-29T18:00:00.931Z,46.10
2022-07-29T18:02:28.518Z,46.20
2022-07-29T18:04:55.455Z,46.30
2022-07-29T18:07:22.215Z,46.40
2022-07-29T18:09:48.952Z,46.60
2022-07-29T18:12:15.981Z,46.60
2022-07-29T18:14:42.727Z,46.70
2022-07-29T18:17:09.510Z,46.90
2022-07-29T18:19:36.276Z,47.00
2022-07-29T18:22:05.196Z,47.00
2022-07-29T18:24:32.509Z,47.20
2022-07-29T18:26:59.557Z,47.30
2022-07-29T18:29:29.053Z,47.30
2022-07-29T18:31:56.038Z,47.40
2022-07-29T18:34:22.796Z,47.60
2022-07-29T18:36:49.523Z,47.80
2022-07-29T18:39:20.385Z,48.00
2022-07-29T18:41:50.448Z,48.10
2022-07-29T18:44:18.372Z,48.30
2022-07-29T18:46:57.830Z,48.30
2022-07-29T18:49:24.906Z,48.30
2022-07-29T18:51:52.188Z,48.50
2022-07-29T18:54:18.972Z,48.60
2022-07-29T18:56:46.187Z,48.60
2022-07-29T18:59:16.882Z,49.00
2022-07-29T19:01:43.952Z,49.10
2022-07-29T19:04:10.765Z,49.10
2022-07-29T19:06:37.499Z,49.40
2022-07-29T19:09:04.316Z,49.60
2022-07-29T19:11:31.054Z,49.60
2022-07-29T19:13:57.793Z,49.80
2022-07-29T19:16:24.603Z,49.90
2022-07-29T19:18:51.592Z,49.60
2022-07-29T19:21:18.482Z,48.10
2022-07-29T19:24:06.302Z,47.30
2022-07-29T19:26:33.432Z,46.60
2022-07-29T19:29:00.174Z,45.90
2022-07-29T19:31:26.960Z,45.50
2022-07-29T19:33:53.889Z,44.60
2022-07-29T19:36:20.705Z,44.10
2022-07-29T19:38:47.443Z,43.60
2022-07-29T19:41:15.805Z,43.20
2022-07-29T19:43:51.112Z,42.70
2022-07-29T19:46:20.461Z,42.40
2022-07-29T19:48:47.318Z,42.00
2022-07-29T19:51:14.089Z,41.50
2022-07-29T19:53:40.837Z,41.20
2022-07-29T19:56:08.972Z,41.00
2022-07-29T19:58:36.070Z,40.80
2022-07-29T20:01:02.947Z,40.50
2022-07-29T20:03:37.058Z,40.20
2022-07-29T20:06:04.022Z,39.90
2022-07-29T20:08:31.588Z,39.70
2022-07-29T20:10:58.307Z,39.60
2022-07-29T20:13:25.081Z,39.50
2022-07-29T20:15:51.918Z,39.40
2022-07-29T20:18:18.782Z,39.10
2022-07-29T20:20:45.564Z,39.00
2022-07-29T20:23:12.401Z,38.90
2022-07-29T20:25:39.514Z,38.80
2022-07-29T20:28:07.492Z,38.60
2022-07-29T20:30:34.306Z,38.40
2022-07-29T20:33:05.350Z,38.30
2022-07-29T20:35:32.110Z,38.20
2022-07-29T20:38:00.502Z,38.00
2022-07-29T20:40:27.413Z,37.60
2022-07-29T20:42:54.299Z,37.90
2022-07-29T20:45:21.211Z,38.00
2022-07-29T20:47:48.073Z,37.80
2022-07-29T20:50:15.037Z,37.60
2022-07-29T20:52:43.368Z,37.60
2022-07-29T20:55:10.462Z,37.50
2022-07-29T20:57:40.063Z,37.50
2022-07-29T21:00:07.542Z,37.30
2022-07-29T21:02:34.562Z,37.10
2022-07-29T21:05:01.372Z,37.90
2022-07-29T21:07:28.146Z,37.00
2022-07-29T21:09:54.871Z,37.20
2022-07-29T21:12:22.424Z,37.50
2022-07-29T21:14:49.491Z,37.60
2022-07-29T21:17:16.367Z,38.20
2022-07-29T21:19:43.204Z,38.60
2022-07-29T21:22:10.102Z,39.10
2022-07-29T21:24:36.908Z,39.40
2022-07-29T21:27:22.551Z,39.80
2022-07-29T21:29:49.667Z,40.10
2022-07-29T21:32:29.674Z,40.80
2022-07-29T21:34:57.533Z,41.00
2022-07-29T21:37:24.315Z,41.60
2022-07-29T21:39:51.080Z,41.90
2022-07-29T21:42:17.827Z,42.10
2022-07-29T21:44:44.616Z,42.50
2022-07-29T21:47:11.957Z,42.80
2022-07-29T21:49:38.818Z,43.00
2022-07-29T21:52:05.777Z,43.40
2022-07-29T21:54:34.680Z,43.40
2022-07-29T21:57:01.470Z,43.60
2022-07-29T21:59:28.290Z,43.90
2022-07-29T22:01:55.103Z,44.20
2022-07-29T22:04:21.935Z,44.20
2022-07-29T22:06:48.811Z,44.50
2022-07-29T22:09:15.651Z,44.90
2022-07-29T22:11:42.555Z,45.20
2022-07-29T22:14:09.564Z,45.40
2022-07-29T22:16:36.556Z,45.50
2022-07-29T22:19:03.969Z,45.70
2022-07-29T22:21:30.798Z,45.80
2022-07-29T22:23:57.739Z,46.00
2022-07-29T22:26:24.492Z,46.20
2022-07-29T22:28:51.222Z,46.50
2022-07-29T22:31:18.178Z,46.60
2022-07-29T22:33:44.960Z,46.80
2022-07-29T22:36:11.769Z,47.40
2022-07-29T22:38:38.612Z,47.40
2022-07-29T22:41:05.415Z,47.80
2022-07-29T22:43:34.096Z,47.80
2022-07-29T22:46:01.126Z,47.90
2022-07-29T22:48:27.909Z,48.10
2022-07-29T22:50:54.711Z,48.00
2022-07-29T22:53:22.146Z,48.30
2022-07-29T22:55:48.954Z,48.50
2022-07-29T22:58:15.700Z,48.80
2022-07-29T23:00:42.537Z,48.60
2022-07-29T23:03:09.452Z,49.10
2022-07-29T23:05:36.273Z,49.20
2022-07-29T23:08:03.138Z,49.20
2022-07-29T23:10:29.969Z,49.20
2022-07-29T23:12:56.801Z,49.40
2022-07-29T23:15:24.486Z,49.80
2022-07-29T23:17:51.251Z,50.00
2022-07-29T23:20:18.067Z,50.20
2022-07-29T23:22:44.965Z,50.60
2022-07-29T23:25:11.722Z,50.70
2022-07-29T23:27:38.499Z,50.60
2022-07-29T23:30:05.585Z,50.80
2022-07-29T23:32:32.419Z,50.90
2022-07-29T23:34:59.193Z,51.00
2022-07-29T23:37:26.972Z,51.10
2022-07-29T23:39:54.020Z,52.00
2022-07-29T23:42:20.775Z,49.40
2022-07-29T23:44:47.530Z,48.50
2022-07-29T23:47:14.356Z,47.90
2022-07-29T23:49:41.115Z,47.30
2022-07-29T23:52:07.868Z,46.90
2022-07-29T23:54:34.615Z,46.50
2022-07-29T23:57:01.788Z,46.00
2022-07-29T23:59:28.715Z,45.40
